PWSweather.com
Personal Weather Stations
Station Observations

ChardChardGB

Lat: 50.877408, Lon: -2.94964741

Elevation: 341

Station Type: WS3083

http://www.merriott-astro.co.uk/weather/index.htm

Latest ConditionsUpdated 6:30:11 AM GMT Friday, May 24, 2019
Currently Today's Max Today's Min Today's Average
Temperature 59.4°F15.2°C 59.4°F15.2°C 51.4°F10.8°C 54.1°F12.3°C
Dew Point 49.6°F9.8°C 50.0°F10.0°C 43.7°F6.5°C 46.9°F8.3°C
Winds 5.0 mph NW8.0 kmh NW 5.4 mph -8.7 kmh - - 2.8 mph 4.5 kmh
Wind Gusts 6.0 mph9.7 kmh 7.6 mph12.2 kmh - -
Humidity 70% 85% 10% 70%
Pressure 29.84 in1010.5 mb 29.85 in1010.8 mb 29.80 in1009.1 mb -
Hour Temp Dew Point Humidity Winds Wind Gusts Pressure Precip Precip Rate Daily Precip Total
06:30 AM 59.4°F15.2°C 49.6°F9.8°C 70% 5.0 mph NW8.0 kmh NW 6.0 mph9.7 kmh 29.84 in1010.5 mb 0.00 in0.0 mm 0.00 in0.0 mm 0.00 in0.0 mm
06:20 AM 59.4°F15.2°C 50.0°F10.0°C 71% 5.4 mph W8.7 kmh W 7.6 mph12.2 kmh 29.85 in1010.8 mb 0.00 in0.0 mm 0.00 in0.0 mm 0.00 in0.0 mm
06:10 AM 58.1°F14.5°C 49.9°F9.9°C 74% 3.5 mph NE5.6 kmh NE 4.5 mph7.2 kmh 29.84 in1010.5 mb 0.00 in0.0 mm 0.00 in0.0 mm 0.00 in0.0 mm
06:00 AM 56.1°F13.4°C 48.3°F9.1°C 75% 3.2 mph NE5.1 kmh NE 3.8 mph6.1 kmh 29.84 in1010.5 mb 0.00 in0.0 mm 0.00 in0.0 mm 0.00 in0.0 mm
05:50 AM 55.9°F13.3°C 48.8°F9.3°C 77% 2.7 mph E4.3 kmh E 3.8 mph6.1 kmh 29.84 in1010.5 mb 0.00 in0.0 mm 0.00 in0.0 mm 0.00 in0.0 mm
05:40 AM 55.8°F13.2°C 50.0°F10.0°C 81% 1.8 mph NNE2.9 kmh NNE 3.1 mph5.0 kmh 29.84 in1010.5 mb 0.00 in0.0 mm 0.00 in0.0 mm 0.00 in0.0 mm
05:30 AM 53.2°F11.8°C 48.9°F9.4°C 85% 1.7 mph NNW2.7 kmh NNW 3.1 mph5.0 kmh 29.83 in1010.2 mb 0.00 in0.0 mm 0.00 in0.0 mm 0.00 in0.0 mm
05:20 AM 52.2°F11.2°C 47.5°F8.6°C 84% 1.1 mph N1.8 kmh N 1.6 mph2.6 kmh 29.83 in1010.2 mb 0.00 in0.0 mm 0.00 in0.0 mm 0.00 in0.0 mm
05:10 AM 51.8°F11.0°C 47.1°F8.4°C 84% 1.0 mph NE1.6 kmh NE 3.1 mph5.0 kmh 29.84 in1010.5 mb 0.00 in0.0 mm 0.00 in0.0 mm 0.00 in0.0 mm
05:00 AM 51.4°F10.8°C 46.5°F8.1°C 83% 0.8 mph N1.3 kmh N 1.6 mph2.6 kmh 29.83 in1010.2 mb 0.00 in0.0 mm 0.00 in0.0 mm 0.00 in0.0 mm
04:50 AM 51.4°F10.8°C 46.1°F7.8°C 82% 1.4 mph NE2.3 kmh NE 1.6 mph2.6 kmh 29.84 in1010.5 mb 0.00 in0.0 mm 0.00 in0.0 mm 0.00 in0.0 mm
04:40 AM 51.6°F10.9°C 46.0°F7.8°C 81% 2.0 mph NE3.2 kmh NE 3.1 mph5.0 kmh 29.83 in1010.2 mb 0.00 in0.0 mm 0.00 in0.0 mm 0.00 in0.0 mm
04:30 AM 51.8°F11.0°C 46.2°F7.9°C 81% 1.4 mph NNW2.3 kmh NNW 3.1 mph5.0 kmh 29.83 in1010.2 mb 0.00 in0.0 mm 0.00 in0.0 mm 0.00 in0.0 mm
04:20 AM 52.2°F11.2°C 46.5°F8.1°C 81% 2.1 mph N3.4 kmh N 3.8 mph6.1 kmh 29.83 in1010.2 mb 0.00 in0.0 mm 0.00 in0.0 mm 0.00 in0.0 mm
04:10 AM 52.5°F11.4°C 46.5°F8.1°C 80% 3.2 mph NW5.1 kmh NW 6.0 mph9.7 kmh 29.83 in1010.2 mb 0.00 in0.0 mm 0.00 in0.0 mm 0.00 in0.0 mm
04:00 AM 52.9°F11.6°C 46.9°F8.3°C 80% 3.8 mph NE6.1 kmh NE 5.4 mph8.7 kmh 29.84 in1010.5 mb 0.00 in0.0 mm 0.00 in0.0 mm 0.00 in0.0 mm
03:50 AM 53.2°F11.8°C 47.2°F8.4°C 80% 2.8 mph E4.5 kmh E 3.8 mph6.1 kmh 29.83 in1010.2 mb 0.00 in0.0 mm 0.00 in0.0 mm 0.00 in0.0 mm
03:40 AM 53.2°F11.8°C 46.9°F8.3°C 79% 2.7 mph SE4.3 kmh SE 3.8 mph6.1 kmh 29.82 in1009.8 mb 0.00 in0.0 mm 0.00 in0.0 mm 0.00 in0.0 mm
03:30 AM 53.4°F11.9°C 47.1°F8.4°C 79% 3.1 mph NNW5.0 kmh NNW 4.5 mph7.2 kmh 29.82 in1009.8 mb 0.00 in0.0 mm 0.00 in0.0 mm 0.00 in0.0 mm
03:20 AM 53.6°F12.0°C 46.9°F8.3°C 78% 3.2 mph SE5.1 kmh SE 4.5 mph7.2 kmh 29.82 in1009.8 mb 0.00 in0.0 mm 0.00 in0.0 mm 0.00 in0.0 mm
03:10 AM 53.6°F12.0°C 46.9°F8.3°C 78% 2.2 mph S3.5 kmh S 2.2 mph3.5 kmh 29.82 in1009.8 mb 0.00 in0.0 mm 0.00 in0.0 mm 0.00 in0.0 mm
03:00 AM 54.3°F12.4°C 47.3°F8.5°C 10% 3.1 mph W5.0 kmh W 3.1 mph5.0 kmh 29.82 in1009.8 mb 0.00 in0.0 mm 0.00 in0.0 mm 0.00 in0.0 mm
02:50 AM 54.3°F12.4°C 47.3°F8.5°C 10% 3.1 mph W5.0 kmh W 3.1 mph5.0 kmh 29.82 in1009.8 mb 0.00 in0.0 mm 0.00 in0.0 mm 0.00 in0.0 mm
02:40 AM 54.3°F12.4°C 47.3°F8.5°C 10% 3.1 mph W5.0 kmh W 3.1 mph5.0 kmh 29.82 in1009.8 mb 0.00 in0.0 mm 0.00 in0.0 mm 0.00 in0.0 mm
02:30 AM 54.3°F12.4°C 47.3°F8.5°C 10% 3.1 mph W5.0 kmh W 3.1 mph5.0 kmh 29.82 in1009.8 mb 0.00 in0.0 mm 0.00 in0.0 mm 0.00 in0.0 mm
02:20 AM 54.3°F12.4°C 47.3°F8.5°C 77% 3.1 mph W5.0 kmh W 3.1 mph5.0 kmh 29.81 in1009.5 mb 0.00 in0.0 mm 0.00 in0.0 mm 0.00 in0.0 mm
02:10 AM 54.3°F12.4°C 47.3°F8.5°C 77% 3.1 mph W5.0 kmh W 3.1 mph5.0 kmh 29.82 in1009.8 mb 0.00 in0.0 mm 0.00 in0.0 mm 0.00 in0.0 mm
02:00 AM 54.3°F12.4°C 47.3°F8.5°C 77% 3.1 mph W5.0 kmh W 3.1 mph5.0 kmh 29.82 in1009.8 mb 0.00 in0.0 mm 0.00 in0.0 mm 0.00 in0.0 mm
01:50 AM 54.3°F12.4°C 47.3°F8.5°C 77% 3.1 mph W5.0 kmh W 3.1 mph5.0 kmh 29.82 in1009.8 mb 0.00 in0.0 mm 0.00 in0.0 mm 0.00 in0.0 mm
01:40 AM 54.3°F12.4°C 47.3°F8.5°C 77% 3.0 mph W4.8 kmh W 3.1 mph5.0 kmh 29.82 in1009.8 mb 0.00 in0.0 mm 0.00 in0.0 mm 0.00 in0.0 mm
01:30 AM 54.3°F12.4°C 47.3°F8.5°C 77% 4.4 mph E7.1 kmh E 4.5 mph7.2 kmh 29.81 in1009.5 mb 0.00 in0.0 mm 0.00 in0.0 mm 0.00 in0.0 mm
01:20 AM 54.5°F12.5°C 46.0°F7.8°C 73% 3.6 mph E5.8 kmh E 5.4 mph8.7 kmh 29.82 in1009.8 mb 0.00 in0.0 mm 0.00 in0.0 mm 0.00 in0.0 mm
01:10 AM 54.5°F12.5°C 45.7°F7.6°C 72% 2.6 mph ENE4.2 kmh ENE 5.4 mph8.7 kmh 29.80 in1009.1 mb 0.00 in0.0 mm 0.00 in0.0 mm 0.00 in0.0 mm
01:00 AM 54.5°F12.5°C 45.3°F7.4°C 71% 3.2 mph NNW5.1 kmh NNW 3.8 mph6.1 kmh 29.81 in1009.5 mb 0.00 in0.0 mm 0.00 in0.0 mm 0.00 in0.0 mm
12:50 AM 54.5°F12.5°C 44.9°F7.2°C 70% 4.7 mph WNW7.6 kmh WNW 6.0 mph9.7 kmh 29.81 in1009.5 mb 0.00 in0.0 mm 0.00 in0.0 mm 0.00 in0.0 mm
12:40 AM 54.3°F12.4°C 45.1°F7.3°C 71% 3.3 mph NW5.3 kmh NW 6.0 mph9.7 kmh 29.81 in1009.5 mb 0.00 in0.0 mm 0.00 in0.0 mm 0.00 in0.0 mm
12:30 AM 54.1°F12.3°C 44.6°F7.0°C 70% 3.2 mph WNW5.1 kmh WNW 3.8 mph6.1 kmh 29.82 in1009.8 mb 0.00 in0.0 mm 0.00 in0.0 mm 0.00 in0.0 mm
12:20 AM 53.8°F12.1°C 44.2°F6.8°C 70% 2.5 mph W4.0 kmh W 3.1 mph5.0 kmh 29.81 in1009.5 mb 0.00 in0.0 mm 0.00 in0.0 mm 0.00 in0.0 mm
12:10 AM 53.6°F12.0°C 43.7°F6.5°C 69% 2.1 mph W3.4 kmh W 2.2 mph3.5 kmh 29.81 in1009.5 mb 0.00 in0.0 mm 0.00 in0.0 mm 0.00 in0.0 mm
12:00 AM 53.6°F12.0°C 43.7°F6.5°C 69% 2.4 mph W3.9 kmh W 3.1 mph5.0 kmh 29.82 in1009.8 mb 0.00 in0.0 mm 0.00 in0.0 mm 0.00 in0.0 mm